Kirriemuir, United Kingdom
Current Conditions -  °F | °C
As of 4:20 PM on Monday 26 Jan 2015 (Local Time) from EGPN Reporting Station
Few Clouds Few Clouds  
Wind Chill: 32°   Ceiling: Unl
Heat Index: 39°   Visibility: 6mi
Dew Point: 34°   Wind: 12mph
Humidity: 81%   Direction: 280°W
Pressure: 30.09"   Gusts: NA
Location:  56.67°N, 3°W
Report Text: EGPN 261620Z 28010KT 9999 FEW040 04/01 Q1019
Loading
Personal Weather Stations






























Interactive Weather Map New forecast layout! Learn more

10-Day Weather Forecast

Advertisements
Track Severe Weather on mobile